Time;durP1;ratioP1;P1;durP2;ratioP2;P2;SDS_P1;SDS_P2;PMS_P1;PMS_P2;Temp;Humidity;BMP_temperature;BMP_pressure;BME280_temperature;BME280_humidity;BME280_pressure;Samples;Min_cycle;Max_cycle;Signal;HPM_P1;HPM_P2
2023/09/04 00:01:34;;;;;;;2.45;1.75;;;21.30;99.90;;;20.63;100.00;101468.84;4153430;28;20516;-73
2023/09/04 00:03:35;;;;;;;3.08;1.85;;;21.20;99.90;;;20.58;100.00;101481.22;4153432;28;20034;-73
2023/09/04 00:05:36;;;;;;;2.97;1.88;;;21.10;99.90;;;20.53;100.00;101476.44;4154642;28;20485;-73
2023/09/04 00:07:37;;;;;;;4.47;2.58;;;21.00;99.90;;;20.48;100.00;101470.88;4154480;28;20026;-74
2023/09/04 00:09:39;;;;;;;2.95;1.90;;;21.00;99.90;;;20.42;100.00;101477.03;4136895;28;20494;-73
2023/09/04 00:11:40;;;;;;;3.65;2.17;;;21.00;99.90;;;20.38;100.00;101473.09;4144212;28;20093;-73
2023/09/04 00:13:41;;;;;;;3.58;2.03;;;20.90;99.90;;;20.36;100.00;101472.50;4152987;28;20041;-73
2023/09/04 00:15:44;;;;;;;4.93;2.15;;;20.80;99.90;;;20.29;100.00;101475.16;4151671;28;20441;-73
2023/09/04 00:17:50;;;;;;;4.28;1.90;;;20.90;99.90;;;20.30;100.00;101459.91;4153111;28;20034;-73
2023/09/04 00:19:51;;;;;;;3.95;1.88;;;20.80;99.90;;;20.25;100.00;101465.00;4154265;28;20026;-74
2023/09/04 00:21:52;;;;;;;2.53;2.00;;;20.80;99.90;;;20.21;100.00;101455.72;4151933;28;20033;-73
2023/09/04 00:23:53;;;;;;;4.15;2.30;;;20.70;99.90;;;20.17;100.00;101451.78;4151178;28;20053;-74
2023/09/04 00:25:54;;;;;;;3.92;2.25;;;20.70;99.90;;;20.13;100.00;101458.59;4154164;28;20035;-74
2023/09/04 00:27:57;;;;;;;3.22;2.05;;;20.70;99.90;;;20.09;100.00;101457.31;4152919;28;20034;-73
2023/09/04 00:29:57;;;;;;;2.88;1.90;;;20.60;99.90;;;20.07;100.00;101456.72;4154104;28;20061;-74
2023/09/04 00:31:58;;;;;;;2.88;1.83;;;20.60;99.90;;;19.99;100.00;101451.50;4153870;28;20022;-74
2023/09/04 00:33:59;;;;;;;3.92;2.20;;;20.60;99.90;;;20.01;100.00;101460.19;4136649;28;20027;-74
2023/09/04 00:36:02;;;;;;;4.43;2.17;;;20.50;99.90;;;19.95;100.00;101464.47;4151794;28;20522;-73
2023/09/04 00:38:03;;;;;;;2.67;2.00;;;20.50;99.90;;;19.96;100.00;101451.91;4148866;28;20022;-73
2023/09/04 00:40:06;;;;;;;3.58;2.17;;;20.50;99.90;;;20.00;100.00;101455.84;4152599;28;20022;-73
2023/09/04 00:42:07;;;;;;;3.13;2.20;;;20.50;99.90;;;19.94;100.00;101459.31;4153557;28;20022;-74
2023/09/04 00:44:08;;;;;;;2.83;1.75;;;20.50;99.90;;;19.89;100.00;101455.38;4154076;28;20029;-73
2023/09/04 00:46:09;;;;;;;3.53;2.08;;;20.40;99.90;;;19.80;100.00;101439.72;4153894;28;20018;-74
2023/09/04 00:48:10;;;;;;;2.67;1.73;;;20.40;99.90;;;19.71;100.00;101441.69;4152404;28;20048;-73
2023/09/04 00:50:23;;;;;;;5.63;2.45;;;20.30;99.90;;;19.72;100.00;101448.72;4152678;28;20057;-73
2023/09/04 00:52:25;;;;;;;2.33;2.10;;;20.30;99.90;;;19.68;100.00;101446.66;4152518;28;20033;-73
2023/09/04 00:54:26;;;;;;;4.32;2.08;;;20.20;99.90;;;19.62;100.00;101442.88;4153791;28;20554;-73
2023/09/04 00:56:27;;;;;;;4.28;2.13;;;20.20;99.90;;;19.60;100.00;101439.59;4152448;28;20057;-73
2023/09/04 00:58:28;;;;;;;3.25;2.08;;;20.20;99.90;;;19.60;100.00;101447.63;4152480;28;20033;-73
2023/09/04 01:00:29;;;;;;;2.78;1.90;;;20.10;99.90;;;19.58;100.00;101446.19;4153916;28;20037;-74
2023/09/04 01:02:31;;;;;;;4.13;1.70;;;20.10;99.90;;;19.58;100.00;101443.50;4152878;28;20092;-73
2023/09/04 01:04:32;;;;;;;3.80;1.90;;;20.10;99.90;;;19.58;100.00;101440.81;4152290;28;20025;-74
2023/09/04 01:06:33;;;;;;;5.85;2.20;;;20.10;99.90;;;19.55;100.00;101450.06;4153552;28;20026;-74
2023/09/04 01:08:36;;;;;;;3.05;2.25;;;20.10;99.90;;;19.57;100.00;101445.34;4152229;28;20022;-74
2023/09/04 01:10:49;;;;;;;3.33;2.20;;;20.10;99.90;;;19.58;100.00;101436.31;4152232;28;20045;-74
2023/09/04 01:13:29;;;;;;;6.32;2.30;;;20.10;99.90;;;19.56;100.00;101438.31;4140245;28;20401;-74
2023/09/04 01:15:31;;;;;;;6.22;2.33;;;20.10;99.90;;;19.57;100.00;101437.31;4153356;28;20117;-74
2023/09/04 01:17:33;;;;;;;2.75;2.03;;;20.10;99.90;;;19.53;100.00;101427.22;4142553;28;20528;-74
2023/09/04 01:19:38;;;;;;;2.20;1.77;;;20.10;99.90;;;19.49;100.00;101426.78;4152190;28;20101;-74
2023/09/04 01:21:40;;;;;;;3.40;2.35;;;20.00;99.90;;;19.40;100.00;101424.47;4153112;28;20116;-74
2023/09/04 01:23:40;;;;;;;3.55;2.15;;;20.00;99.90;;;19.32;100.00;101417.41;4151977;28;20424;-74
2023/09/04 01:25:49;;;;;;;3.30;2.13;;;19.90;99.90;;;19.33;100.00;101417.19;4151873;28;20036;-73
2023/09/04 01:28:04;;;;;;;4.32;2.20;;;19.90;99.90;;;19.34;100.00;101423.38;4151863;28;20045;-74
2023/09/04 01:30:20;;;;;;;3.50;2.20;;;19.90;99.90;;;19.34;100.00;101415.34;4152271;28;20034;-74
2023/09/04 01:32:36;;;;;;;3.03;2.20;;;19.90;99.90;;;19.32;100.00;101412.03;4152968;28;20034;-73
2023/09/04 01:34:49;;;;;;;2.95;1.90;;;19.80;99.90;;;19.27;100.00;101396.56;4151453;28;20035;-73
2023/09/04 01:36:52;;;;;;;4.20;2.37;;;19.80;99.90;;;19.27;100.00;101411.78;4151035;28;20060;-73
2023/09/04 01:38:55;;;;;;;5.00;2.45;;;19.80;99.90;;;19.24;100.00;101407.66;4151593;28;20133;-73
2023/09/04 01:40:55;;;;;;;3.33;2.22;;;19.80;99.90;;;19.25;100.00;101405.81;4151820;28;20034;-73
2023/09/04 01:42:56;;;;;;;4.75;1.60;;;19.80;99.90;;;19.28;100.00;101397.41;4151437;28;20026;-74
2023/09/04 01:44:57;;;;;;;2.78;1.95;;;19.80;99.90;;;19.22;100.00;101388.31;4151654;28;20042;-73
2023/09/04 01:46:59;;;;;;;4.15;2.33;;;19.80;99.90;;;19.26;100.00;101394.91;4152939;28;20029;-74
2023/09/04 01:49:00;;;;;;;3.17;2.13;;;19.80;99.90;;;19.28;100.00;101394.72;4152838;28;20026;-73
2023/09/04 01:51:01;;;;;;;5.07;1.80;;;19.80;99.90;;;19.28;100.00;101390.19;4152780;28;20034;-74
2023/09/04 01:53:03;;;;;;;3.90;2.28;;;19.80;99.90;;;19.26;100.00;101380.72;4152668;28;20041;-74
2023/09/04 01:55:04;;;;;;;3.45;2.40;;;19.80;99.90;;;19.27;100.00;101379.69;4151631;28;20080;-74
2023/09/04 01:57:05;;;;;;;4.75;2.20;;;19.80;99.90;;;19.29;100.00;101385.69;4152590;28;20049;-73
2023/09/04 01:59:06;;;;;;;3.65;2.25;;;19.80;99.90;;;19.31;100.00;101387.13;4151597;28;20057;-73
2023/09/04 02:01:07;;;;;;;4.43;2.00;;;19.80;99.90;;;19.33;100.00;101386.91;4152575;28;20076;-73
2023/09/04 02:03:08;;;;;;;5.05;2.22;;;19.90;99.90;;;19.35;100.00;101371.53;4152651;28;20026;-73
2023/09/04 02:05:09;;;;;;;2.85;1.73;;;19.90;99.90;;;19.38;100.00;101375.66;4152616;28;20053;-73
2023/09/04 02:07:10;;;;;;;2.53;2.15;;;19.90;99.90;;;19.33;100.00;101373.53;4151498;28;20026;-73
2023/09/04 02:09:11;;;;;;;3.28;2.42;;;19.90;99.90;;;19.35;100.00;101384.91;4151454;28;20509;-73
2023/09/04 02:11:12;;;;;;;5.55;2.30;;;19.90;99.90;;;19.35;100.00;101387.56;4152595;28;20084;-73
2023/09/04 02:13:13;;;;;;;3.58;2.30;;;19.90;99.90;;;19.37;100.00;101376.66;4151196;28;20080;-74
2023/09/04 02:15:13;;;;;;;2.70;1.77;;;19.90;99.90;;;19.36;100.00;101373.16;4152499;28;20097;-74
2023/09/04 02:17:14;;;;;;;3.42;2.08;;;19.90;99.90;;;19.36;100.00;101370.47;4152366;28;20056;-73
2023/09/04 02:19:15;;;;;;;3.15;2.22;;;19.90;99.90;;;19.38;100.00;101365.78;4151343;28;20021;-73
2023/09/04 02:21:16;;;;;;;4.97;1.92;;;19.90;99.90;;;19.37;100.00;101358.75;4152612;28;20034;-73
2023/09/04 02:23:17;;;;;;;2.97;2.03;;;19.90;99.90;;;19.43;100.00;101363.34;4151172;28;20022;-74
2023/09/04 02:25:18;;;;;;;4.25;2.20;;;19.90;99.90;;;19.44;100.00;101361.50;4152386;28;20029;-73
2023/09/04 02:27:19;;;;;;;3.00;2.30;;;19.90;99.90;;;19.50;100.00;101363.38;4152163;28;20069;-73
2023/09/04 02:29:20;;;;;;;3.10;1.90;;;20.00;99.90;;;19.50;100.00;101353.50;4152654;28;20030;-73
2023/09/04 02:31:20;;;;;;;4.85;2.05;;;20.00;99.90;;;19.48;100.00;101355.53;4151222;28;20460;-73
2023/09/04 02:33:22;;;;;;;3.45;2.00;;;20.00;99.90;;;19.46;100.00;101357.59;4122842;28;20034;-73
2023/09/04 02:35:22;;;;;;;2.85;1.83;;;20.00;99.90;;;19.48;100.00;101352.03;4143232;28;20018;-74
2023/09/04 02:37:23;;;;;;;3.35;2.05;;;20.00;99.90;;;19.50;100.00;101358.88;4151142;28;20053;-73
2023/09/04 02:39:24;;;;;;;3.95;2.33;;;20.00;99.90;;;19.46;100.00;101351.41;4152363;28;20045;-73
2023/09/04 02:41:25;;;;;;;2.47;1.63;;;20.00;99.90;;;19.46;100.00;101349.56;4150779;28;20030;-73
2023/09/04 02:43:26;;;;;;;3.25;1.88;;;20.00;99.90;;;19.49;100.00;101348.34;4152070;28;20030;-73
2023/09/04 02:45:27;;;;;;;2.45;1.83;;;20.00;99.90;;;19.48;100.00;101344.84;4154670;28;20030;-73
2023/09/04 02:47:27;;;;;;;4.55;1.98;;;20.00;99.90;;;19.47;100.00;101337.84;4154364;28;20532;-73
2023/09/04 02:49:28;;;;;;;3.50;1.98;;;20.00;99.90;;;19.48;100.00;101341.34;4155590;28;20064;-73
2023/09/04 02:51:29;;;;;;;5.82;2.40;;;20.00;99.90;;;19.54;100.00;101346.72;4154397;28;20018;-74
2023/09/04 02:53:32;;;;;;;3.63;2.10;;;20.00;99.90;;;19.58;100.00;101341.78;4155698;28;20030;-74
2023/09/04 02:55:33;;;;;;;5.47;2.58;;;20.00;99.90;;;19.57;100.00;101338.28;4138200;28;20030;-74
2023/09/04 02:57:34;;;;;;;4.18;2.67;;;20.10;99.90;;;19.49;100.00;101338.47;4155218;28;20030;-73
2023/09/04 02:59:36;;;;;;;3.17;1.90;;;20.10;99.90;;;19.50;100.00;101337.47;4154055;28;20060;-73
2023/09/04 03:01:37;;;;;;;3.55;2.15;;;20.00;99.90;;;19.53;100.00;101331.72;4154264;28;20026;-74
2023/09/04 03:03:37;;;;;;;3.67;2.25;;;20.00;99.90;;;19.49;100.00;101329.63;4155582;28;20033;-74
2023/09/04 03:05:39;;;;;;;3.72;1.92;;;20.10;99.90;;;19.51;100.00;101339.09;4155417;28;20080;-73
2023/09/04 03:07:40;;;;;;;4.47;2.13;;;20.00;99.90;;;19.52;100.00;101335.41;4152943;28;20022;-73
2023/09/04 03:09:41;;;;;;;2.67;2.05;;;20.00;99.90;;;19.44;100.00;101324.88;4155321;28;20030;-73
2023/09/04 03:11:42;;;;;;;3.45;2.08;;;20.00;99.90;;;19.46;100.00;101319.31;4153948;28;20076;-73
2023/09/04 03:13:42;;;;;;;3.05;1.90;;;20.00;99.90;;;19.36;100.00;101319.63;4170623;28;20032;-74
2023/09/04 03:15:43;;;;;;;3.03;2.10;;;20.00;99.90;;;19.39;100.00;101324.63;4155302;28;20033;-74
2023/09/04 03:17:44;;;;;;;3.25;1.88;;;19.90;99.90;;;19.40;100.00;101328.97;4154096;28;20102;-73
2023/09/04 03:19:45;;;;;;;3.10;2.42;;;19.90;99.90;;;19.34;100.00;101321.69;4155159;28;20022;-74
2023/09/04 03:21:46;;;;;;;3.15;2.22;;;19.90;99.90;;;19.37;100.00;101328.50;4155090;28;20030;-74
2023/09/04 03:23:50;;;;;;;3.00;1.92;;;19.90;99.90;;;19.36;100.00;101330.34;4154885;28;20033;-74
2023/09/04 03:25:51;;;;;;;2.47;2.00;;;19.90;99.90;;;19.32;100.00;101318.41;4154029;28;20029;-73
2023/09/04 03:27:52;;;;;;;3.15;1.92;;;19.90;99.90;;;19.35;100.00;101312.66;4154013;28;20018;-73
2023/09/04 03:29:54;;;;;;;2.72;2.10;;;19.90;99.90;;;19.39;100.00;101316.59;4153793;28;20037;-74
2023/09/04 03:31:55;;;;;;;2.78;1.95;;;19.90;99.90;;;19.38;100.00;101314.94;4153616;28;20022;-73
2023/09/04 03:33:55;;;;;;;3.25;2.03;;;19.90;99.90;;;19.40;100.00;101312.06;4154982;28;20065;-73
2023/09/04 03:35:57;;;;;;;3.67;1.92;;;19.90;99.90;;;19.33;100.00;101312.00;4151893;28;20030;-74
2023/09/04 03:37:58;;;;;;;5.28;2.60;;;19.90;99.90;;;19.39;100.00;101313.94;4152415;28;20040;-74
2023/09/04 03:40:21;;;;;;;3.80;2.10;;;19.90;99.90;;;19.41;100.00;101303.88;4150893;28;20030;-74
2023/09/04 03:42:22;;;;;;;2.95;1.92;;;19.90;99.90;;;19.39;100.00;101310.38;4154451;28;20045;-73
2023/09/04 03:44:23;;;;;;;4.32;2.30;;;19.90;99.90;;;19.34;100.00;101311.00;4154661;28;20021;-74
2023/09/04 03:46:26;;;;;;;2.50;1.75;;;19.90;99.90;;;19.33;100.00;101306.66;4153435;28;20029;-73
2023/09/04 03:48:27;;;;;;;3.40;1.95;;;19.80;99.90;;;19.32;100.00;101297.00;4153606;28;20415;-73
2023/09/04 03:50:28;;;;;;;3.78;2.08;;;19.80;99.90;;;19.33;100.00;101309.34;4153562;28;20109;-73
2023/09/04 03:52:29;;;;;;;3.25;1.92;;;19.80;99.90;;;19.29;100.00;101300.88;4154629;28;20033;-74
2023/09/04 03:54:30;;;;;;;6.15;2.20;;;19.80;99.90;;;19.30;100.00;101309.72;4153303;28;20026;-73
2023/09/04 03:56:31;;;;;;;3.60;1.95;;;19.80;99.90;;;19.29;100.00;101300.06;4136483;28;20061;-73
2023/09/04 03:58:32;;;;;;;4.93;2.10;;;19.80;99.90;;;19.30;100.00;101301.72;4144334;28;20037;-74
2023/09/04 04:00:33;;;;;;;2.83;1.80;;;19.80;99.90;;;19.28;100.00;101306.44;4153135;28;20030;-73
2023/09/04 04:02:34;;;;;;;3.90;2.20;;;19.80;99.90;;;19.23;100.00;101304.34;4153182;28;20525;-73
2023/09/04 04:04:35;;;;;;;4.32;1.90;;;19.80;99.90;;;19.18;100.00;101305.97;4154333;28;20022;-73
2023/09/04 04:06:35;;;;;;;5.60;1.88;;;19.70;99.90;;;19.24;100.00;101310.53;4154482;28;20032;-73
2023/09/04 04:08:36;;;;;;;2.85;2.30;;;19.70;99.90;;;19.18;100.00;101296.09;4153390;28;20033;-73
2023/09/04 04:10:37;;;;;;;3.67;2.05;;;19.70;99.90;;;19.15;100.00;101301.84;4154572;28;20084;-73
2023/09/04 04:12:39;;;;;;;4.13;1.85;;;19.70;99.90;;;19.10;100.00;101292.78;4152803;28;20034;-73
2023/09/04 04:14:40;;;;;;;3.50;2.33;;;19.70;99.90;;;19.08;100.00;101297.50;4153113;28;20124;-73
2023/09/04 04:16:40;;;;;;;2.78;1.90;;;19.70;99.90;;;19.07;100.00;101303.88;4153013;28;20029;-73
2023/09/04 04:18:41;;;;;;;3.60;2.03;;;19.60;99.90;;;19.04;100.00;101289.06;4141466;28;20110;-74
2023/09/04 04:20:42;;;;;;;4.40;2.03;;;19.60;99.90;;;19.03;100.00;101290.06;4152533;28;20037;-73
2023/09/04 04:22:43;;;;;;;4.55;2.17;;;19.60;99.90;;;18.98;100.00;101283.66;4154026;28;20041;-74
2023/09/04 04:24:44;;;;;;;3.22;2.03;;;19.50;99.90;;;18.93;100.00;101286.09;4154262;28;20026;-74
2023/09/04 04:26:45;;;;;;;5.80;2.33;;;19.50;99.90;;;18.89;100.00;101280.31;4153924;28;20033;-74
2023/09/04 04:28:46;;;;;;;6.43;2.17;;;19.50;99.90;;;18.85;100.00;101287.06;4153942;28;20050;-74
2023/09/04 04:30:47;;;;;;;3.78;2.45;;;19.40;99.90;;;18.86;100.00;101285.22;4153015;28;20028;-74
2023/09/04 04:32:50;;;;;;;3.25;2.05;;;19.40;99.90;;;18.82;100.00;101284.78;4154111;28;20497;-73
2023/09/04 04:34:51;;;;;;;2.65;1.98;;;19.40;99.90;;;18.72;100.00;101279.00;4153276;28;20042;-73
2023/09/04 04:36:56;;;;;;;2.92;2.30;;;19.30;99.90;;;18.75;100.00;101283.94;4152603;28;20476;-73
2023/09/04 04:38:57;;;;;;;3.45;2.10;;;19.30;99.90;;;18.69;100.00;101280.22;4136332;28;20430;-73
2023/09/04 04:40:58;;;;;;;3.65;2.00;;;19.30;99.90;;;18.70;100.00;101284.53;4151923;28;20036;-74
2023/09/04 04:42:59;;;;;;;3.60;2.22;;;19.30;99.90;;;18.72;100.00;101279.81;4147248;28;20034;-73
2023/09/04 04:45:00;;;;;;;3.22;2.40;;;19.30;99.90;;;18.78;100.00;101281.72;4152471;28;20098;-73
2023/09/04 04:47:01;;;;;;;2.55;2.00;;;19.30;99.90;;;18.76;100.00;101275.72;4153894;28;20041;-74
2023/09/04 04:49:03;;;;;;;3.65;2.33;;;19.30;99.90;;;18.78;100.00;101276.38;4152646;28;20061;-73
2023/09/04 04:51:04;;;;;;;4.07;2.47;;;19.30;99.90;;;18.78;100.00;101271.03;4152489;28;20029;-74
2023/09/04 04:53:05;;;;;;;3.45;2.03;;;19.30;99.90;;;18.79;100.00;101274.50;4152430;28;20022;-73
2023/09/04 04:55:07;;;;;;;3.40;1.90;;;19.30;99.90;;;18.72;100.00;101263.78;4153727;28;20037;-73
2023/09/04 04:57:08;;;;;;;2.35;1.77;;;19.30;99.90;;;18.78;100.00;101272.88;4152437;28;20460;-73
2023/09/04 04:59:09;;;;;;;3.03;2.20;;;19.30;99.90;;;18.78;100.00;101273.69;4153606;28;20088;-73
2023/09/04 05:01:10;;;;;;;3.25;2.05;;;19.30;99.90;;;18.78;100.00;101279.03;4152209;28;20397;-73
2023/09/04 05:03:11;;;;;;;2.30;1.85;;;19.30;99.90;;;18.65;100.00;101257.56;4153674;28;20508;-74
2023/09/04 05:05:12;;;;;;;4.10;2.60;;;19.30;99.90;;;18.70;100.00;101270.31;4152346;28;20026;-73
2023/09/04 05:07:14;;;;;;;2.30;1.90;;;19.20;99.90;;;18.68;100.00;101256.34;4153305;28;20037;-73
2023/09/04 05:09:14;;;;;;;3.35;2.20;;;19.20;99.90;;;18.70;100.00;101264.97;4152190;28;20017;-73
2023/09/04 05:11:15;;;;;;;3.95;1.95;;;19.20;99.90;;;18.68;100.00;101262.53;4153637;28;20077;-73
2023/09/04 05:13:16;;;;;;;3.28;1.88;;;19.20;99.90;;;18.66;100.00;101264.56;4153460;28;20034;-73
2023/09/04 05:15:17;;;;;;;3.92;2.47;;;19.20;99.90;;;18.61;100.00;101253.63;4152097;28;20038;-73
2023/09/04 05:17:18;;;;;;;4.20;2.33;;;19.20;99.90;;;18.63;100.00;101258.78;4135816;28;20073;-73
2023/09/04 05:19:19;;;;;;;2.78;2.10;;;19.20;99.90;;;18.62;100.00;101257.13;4142943;28;20524;-73
2023/09/04 05:21:20;;;;;;;4.90;2.10;;;19.20;99.90;;;18.65;100.00;101257.56;4168565;28;20104;-74
2023/09/04 05:23:22;;;;;;;3.40;2.70;;;19.20;99.90;;;18.66;100.00;101256.56;4151998;28;20532;-73
2023/09/04 05:25:22;;;;;;;2.78;2.08;;;19.20;99.90;;;18.69;100.00;101258.84;4151976;28;20021;-73
2023/09/04 05:27:23;;;;;;;2.67;2.03;;;19.20;99.90;;;18.69;100.00;101258.84;4151657;28;20126;-73
2023/09/04 05:29:24;;;;;;;5.07;2.38;;;19.20;99.90;;;18.69;100.00;101255.34;4153180;28;20520;-74
2023/09/04 05:31:25;;;;;;;3.42;2.40;;;19.20;99.90;;;18.74;100.00;101261.72;4152001;28;20034;-74
2023/09/04 05:33:26;;;;;;;4.18;2.20;;;19.20;99.90;;;18.72;100.00;101260.28;4153139;28;20030;-73
2023/09/04 05:35:27;;;;;;;4.57;2.15;;;19.20;99.90;;;18.75;100.00;101260.72;4152171;28;20029;-73
2023/09/04 05:37:27;;;;;;;3.35;2.00;;;19.20;99.90;;;18.72;100.00;101263.78;4153114;28;20489;-73
2023/09/04 05:39:28;;;;;;;3.47;2.20;;;19.20;99.90;;;18.69;100.00;101261.50;4152832;28;20422;-74
2023/09/04 05:41:30;;;;;;;3.30;2.00;;;19.20;99.90;;;18.67;100.00;101263.53;4152755;28;20030;-73
2023/09/04 05:43:30;;;;;;;2.95;2.10;;;19.20;99.90;;;18.74;100.00;101272.44;4152673;28;20034;-73
2023/09/04 05:45:31;;;;;;;3.10;1.83;;;19.20;99.90;;;18.78;100.00;101267.53;4151973;28;20513;-73
2023/09/04 05:47:32;;;;;;;4.07;2.17;;;19.30;99.90;;;18.77;100.00;101264.00;4152847;28;20056;-73
2023/09/04 05:49:33;;;;;;;3.13;1.98;;;19.30;99.90;;;18.77;100.00;101256.00;4151260;28;20068;-74
2023/09/04 05:51:34;;;;;;;3.03;2.15;;;19.30;99.90;;;18.79;100.00;101264.63;4151648;28;20030;-73
2023/09/04 05:53:35;;;;;;;2.88;2.10;;;19.30;99.90;;;18.81;100.00;101266.28;4140255;28;20037;-73
2023/09/04 05:55:36;;;;;;;2.92;2.03;;;19.30;99.90;;;18.77;100.00;101265.84;4152340;28;20528;-73
2023/09/04 05:57:37;;;;;;;3.92;2.17;;;19.30;99.90;;;18.79;100.00;101263.81;4152515;28;20025;-73
2023/09/04 05:59:38;;;;;;;3.00;2.08;;;19.30;99.90;;;18.82;100.00;101262.59;4152657;28;20034;-73
2023/09/04 06:01:39;;;;;;;3.40;2.17;;;19.30;99.90;;;18.82;100.00;101257.25;4152829;28;20390;-73
2023/09/04 06:03:40;;;;;;;3.63;1.98;;;19.30;99.90;;;18.88;100.00;101264.47;4149430;28;20037;-74
2023/09/04 06:05:41;;;;;;;3.85;2.50;;;19.30;99.90;;;18.89;100.00;101264.28;4151466;28;20022;-73
2023/09/04 06:07:42;;;;;;;5.10;2.40;;;19.40;99.90;;;18.96;100.00;101258.97;4152485;28;20096;-73
2023/09/04 06:09:44;;;;;;;3.42;2.03;;;19.40;99.90;;;18.97;100.00;101266.78;4151513;28;20032;-73
2023/09/04 06:11:45;;;;;;;3.00;1.90;;;19.50;99.90;;;19.03;100.00;101265.16;4167500;28;20053;-73
2023/09/04 06:13:46;;;;;;;5.70;2.17;;;19.50;99.90;;;19.00;100.00;101249.50;4152566;28;20056;-73
2023/09/04 06:15:53;;;;;;;2.35;1.80;;;19.50;99.90;;;19.10;100.00;101269.53;4151296;28;20041;-73
2023/09/04 06:17:54;;;;;;;3.75;1.88;;;19.50;99.90;;;19.07;100.00;101253.88;4152609;28;20030;-74
2023/09/04 06:19:55;;;;;;;4.00;2.35;;;19.60;99.90;;;19.14;100.00;101259.28;4151847;28;20029;-73
2023/09/04 06:21:56;;;;;;;2.58;1.95;;;19.60;99.90;;;19.18;100.00;101264.00;4143556;28;20445;-74
2023/09/04 06:23:57;;;;;;;3.42;2.00;;;19.70;99.90;;;19.19;100.00;101263.00;4148565;28;20624;-73
2023/09/04 06:26:02;;;;;;;2.13;1.60;;;19.70;99.90;;;19.20;100.00;101261.16;4151392;28;20043;-73
2023/09/04 06:28:03;;;;;;;2.70;1.80;;;19.70;99.90;;;19.25;100.00;101274.75;4150945;28;20058;-73
2023/09/04 06:30:06;;;;;;;3.95;1.95;;;19.70;99.90;;;19.25;100.00;101274.75;4152379;28;20087;-74
2023/09/04 06:32:07;;;;;;;3.25;1.90;;;19.70;99.90;;;19.27;100.00;101276.19;4150007;28;20022;-73
2023/09/04 06:34:08;;;;;;;2.70;2.10;;;19.70;99.90;;;19.31;100.00;101276.63;4151260;28;20116;-74
2023/09/04 06:36:09;;;;;;;2.75;1.75;;;19.80;99.90;;;19.34;100.00;101274.38;4151634;28;20113;-74
2023/09/04 06:38:12;;;;;;;3.92;1.73;;;19.80;99.90;;;19.39;100.00;101271.13;4152159;28;20050;-75
2023/09/04 06:40:13;;;;;;;3.58;1.92;;;19.90;99.90;;;19.42;100.00;101277.91;4152212;28;20025;-74
2023/09/04 06:42:14;;;;;;;2.85;1.50;;;19.90;99.90;;;19.44;100.00;101268.69;4152039;28;20080;-73
2023/09/04 06:44:15;;;;;;;3.97;2.00;;;19.90;99.90;;;19.46;100.00;101271.16;4152284;28;20026;-73
2023/09/04 06:46:16;;;;;;;3.33;2.05;;;19.90;99.90;;;19.54;100.00;101271.78;4152291;28;20568;-74
2023/09/04 06:48:16;;;;;;;3.00;2.10;;;20.00;99.90;;;19.58;100.00;101266.84;4134625;28;20034;-73
2023/09/04 06:50:17;;;;;;;2.45;1.90;;;20.00;99.90;;;19.59;100.00;101269.31;4150382;28;20026;-74
2023/09/04 06:52:18;;;;;;;2.97;2.28;;;20.00;99.90;;;19.66;100.00;101275.53;4142888;28;20030;-74
2023/09/04 06:54:19;;;;;;;2.40;1.80;;;20.10;99.90;;;19.71;100.00;101270.38;4150932;28;20022;-73
2023/09/04 06:56:20;;;;;;;2.10;1.80;;;20.20;99.90;;;19.77;100.00;101274.91;4150041;28;20041;-74
2023/09/04 06:58:22;;;;;;;2.60;1.90;;;20.20;99.90;;;19.84;100.00;101278.44;4152239;28;20039;-73
2023/09/04 07:00:23;;;;;;;2.63;2.03;;;20.30;99.90;;;19.90;100.00;101282.16;4149799;28;20030;-73
2023/09/04 07:02:24;;;;;;;2.60;1.90;;;20.30;99.90;;;19.93;100.00;101280.91;4146842;28;20022;-73
2023/09/04 07:04:25;;;;;;;2.22;1.67;;;20.40;99.90;;;19.96;100.00;101285.88;4150874;28;20036;-73
2023/09/04 07:06:26;;;;;;;2.67;1.80;;;20.40;99.90;;;19.99;100.00;101285.47;4152430;28;20018;-75
2023/09/04 07:08:30;;;;;;;2.42;1.90;;;20.40;99.90;;;19.99;100.00;101272.06;4150734;28;20120;-75
2023/09/04 07:10:32;;;;;;;2.22;1.65;;;20.40;99.90;;;20.00;100.00;101279.91;4152166;28;20033;-75
2023/09/04 07:12:36;;;;;;;1.85;1.55;;;20.50;99.90;;;20.07;100.00;101279.94;4150535;28;20405;-74
2023/09/04 07:14:38;;;;;;;3.90;1.80;;;20.50;99.90;;;20.11;100.00;101275.78;4167254;28;20453;-74
2023/09/04 07:16:39;;;;;;;4.93;1.80;;;20.60;99.90;;;20.19;100.00;101272.94;4150751;28;20041;-74
2023/09/04 07:18:39;;;;;;;3.55;1.70;;;20.60;99.90;;;20.24;100.00;101281.16;4150399;28;20118;-74
2023/09/04 07:20:40;;;;;;;2.30;1.80;;;20.70;99.90;;;20.28;100.00;101283.25;4148334;28;20033;-73
2023/09/04 07:22:41;;;;;;;4.05;2.13;;;20.70;99.90;;;20.34;100.00;101276.22;4146669;28;20030;-74
2023/09/04 07:24:42;;;;;;;2.65;1.88;;;20.70;99.90;;;20.38;100.00;101274.81;4143992;28;20030;-73
2023/09/04 07:26:43;;;;;;;2.88;2.00;;;20.80;99.90;;;20.43;100.00;101267.78;4138373;28;20030;-74
2023/09/04 07:28:44;;;;;;;4.80;2.33;;;20.90;99.90;;;20.52;100.00;101279.09;4150761;28;20033;-73
2023/09/04 07:30:45;;;;;;;2.97;1.73;;;20.90;99.90;;;20.57;100.00;101265.94;4152352;28;20505;-73
2023/09/04 07:32:45;;;;;;;3.70;1.50;;;21.00;99.90;;;20.68;100.00;101269.81;4129895;28;20071;-74
2023/09/04 07:34:46;;;;;;;3.70;1.60;;;21.10;99.90;;;20.69;100.00;101274.97;4149039;28;20026;-74
2023/09/04 07:36:47;;;;;;;3.53;2.22;;;21.10;99.90;;;20.76;100.00;101272.25;4154853;28;20033;-74
2023/09/04 07:38:48;;;;;;;2.53;1.77;;;21.20;99.90;;;20.80;100.00;101268.13;4154825;28;20061;-74
2023/09/04 07:41:00;;;;;;;2.15;1.77;;;21.30;99.90;;;20.88;100.00;101265.22;4154829;28;20396;-74
2023/09/04 07:43:01;;;;;;;2.55;2.00;;;21.30;99.90;;;20.93;100.00;101260.91;4152616;28;20030;-75
2023/09/04 07:45:03;;;;;;;3.90;1.88;;;21.40;99.90;;;20.97;100.00;101254.06;4154724;28;20486;-80
2023/09/04 07:47:04;;;;;;;2.60;1.73;;;21.40;99.90;;;21.04;100.00;101250.53;4154883;28;20026;-78
2023/09/04 07:49:05;;;;;;;2.53;1.85;;;21.50;99.90;;;21.11;100.00;101257.56;4154298;28;20029;-77
2023/09/04 07:51:08;;;;;;;3.65;1.70;;;21.60;99.90;;;21.16;100.00;101256.91;4150925;28;20428;-80
2023/09/04 07:53:09;;;;;;;4.22;1.98;;;21.60;99.90;;;21.20;100.00;101250.94;4152918;28;20038;-82
2023/09/04 07:55:10;;;;;;;4.05;1.63;;;21.60;99.90;;;21.26;100.00;101249.25;4152229;28;20064;-75
2023/09/04 07:57:11;;;;;;;3.47;1.85;;;21.70;99.90;;;21.36;100.00;101252.28;4147024;28;20038;-74
2023/09/04 07:59:11;;;;;;;2.55;1.77;;;21.80;99.90;;;21.43;100.00;101256.59;4152914;28;20068;-75
2023/09/04 08:01:13;;;;;;;2.35;1.50;;;21.90;99.90;;;21.47;100.00;101251.63;4153196;28;20049;-75
2023/09/04 08:03:15;;;;;;;3.97;2.00;;;21.90;99.90;;;21.56;100.00;101252.19;4153167;28;20022;-75
2023/09/04 08:05:15;;;;;;;2.25;1.55;;;22.00;99.90;;;21.58;100.00;101256.31;4154516;28;20030;-75
2023/09/04 08:07:16;;;;;;;2.70;1.83;;;22.10;99.90;;;21.68;100.00;101258.53;4153048;28;20604;-76
2023/09/04 08:09:17;;;;;;;2.53;1.77;;;22.10;99.90;;;21.74;100.00;101255.81;4154361;28;20026;-75
2023/09/04 08:11:18;;;;;;;2.17;1.60;;;22.20;99.90;;;21.84;100.00;101261.50;4152955;28;20053;-75
2023/09/04 08:13:19;;;;;;;3.95;1.90;;;22.30;99.90;;;21.94;100.00;101263.75;4153274;28;20026;-75
2023/09/04 08:15:20;;;;;;;1.98;1.55;;;22.40;99.90;;;22.01;100.00;101264.53;4143561;28;20022;-76
2023/09/04 08:17:21;;;;;;;2.17;1.50;;;22.40;99.90;;;22.00;100.00;101263.69;4151194;28;20625;-76
2023/09/04 08:19:21;;;;;;;3.65;1.58;;;22.50;99.90;;;22.09;100.00;101266.94;4153176;28;20026;-76
2023/09/04 08:21:22;;;;;;;2.50;1.48;;;22.50;99.90;;;22.17;100.00;101265.81;4151165;28;20034;-76